TAP1329 EGKK-LPPR
Flight info
| Callsign | TAP1329 |
|---|---|
| Flight time | 2h 2m |
| Altitude | 37000 |
| Route | IMVUR N63 SAM M195 LORKU DCT POZOF/N0441F390 DCT LOTEE DCT ELTEP/N0361F230 T328 ASPOR |
| Aircraft | E195/M-SDE3GILORVW/S |
Departure
| Time | 2026-05-06 18:43 |
|---|---|
| Airport | London Gatwick Airport (EGKK) |
Arrival
| Time | 2026-05-06 20:45 |
|---|---|
| Airport | Francisco de Sá Carneiro Airport (LPPR) |
| Time | Latitude | Longitude | Altitude | Speed | Heading |
|---|---|---|---|---|---|
| 2026-05-06 18:03 | 51.15636 | -0.16546 | 202 ft | 0 kts | 167° |
| 2026-05-06 18:15 | 51.15636 | -0.16547 | 202 ft | 0 kts | 167° |
| 2026-05-06 18:20 | 51.15637 | -0.16547 | 202 ft | 0 kts | 167° |
| 2026-05-06 18:26 | 51.15642 | -0.16548 | 202 ft | 4 kts | 166° |
| 2026-05-06 18:26 | 51.15666 | -0.16562 | 215 ft | 4 kts | 139° |
| 2026-05-06 18:27 | 51.15682 | -0.16594 | 211 ft | 4 kts | 127° |
| 2026-05-06 18:27 | 51.15696 | -0.16612 | 212 ft | 4 kts | 213° |
| 2026-05-06 18:27 | 51.15705 | -0.16591 | 215 ft | 4 kts | 257° |
| 2026-05-06 18:27 | 51.15708 | -0.16569 | 209 ft | 0 kts | 257° |
| 2026-05-06 18:33 | 51.15704 | -0.16600 | 215 ft | 5 kts | 257° |
| 2026-05-06 18:34 | 51.15694 | -0.16667 | 207 ft | 7 kts | 257° |
| 2026-05-06 18:34 | 51.15682 | -0.16757 | 202 ft | 9 kts | 257° |
| 2026-05-06 18:34 | 51.15670 | -0.16844 | 205 ft | 8 kts | 257° |
| 2026-05-06 18:34 | 51.15655 | -0.16947 | 204 ft | 10 kts | 257° |
| 2026-05-06 18:35 | 51.15638 | -0.17070 | 202 ft | 12 kts | 258° |
| 2026-05-06 18:35 | 51.15619 | -0.17209 | 212 ft | 13 kts | 256° |
| 2026-05-06 18:35 | 51.15595 | -0.17353 | 202 ft | 13 kts | 255° |
| 2026-05-06 18:35 | 51.15548 | -0.17475 | 214 ft | 13 kts | 237° |
| 2026-05-06 18:36 | 51.15524 | -0.17617 | 202 ft | 14 kts | 257° |
| 2026-05-06 18:36 | 51.15501 | -0.17780 | 207 ft | 16 kts | 257° |
| 2026-05-06 18:36 | 51.15475 | -0.17961 | 214 ft | 18 kts | 257° |
| 2026-05-06 18:36 | 51.15443 | -0.18139 | 208 ft | 14 kts | 226° |
| 2026-05-06 18:37 | 51.15345 | -0.18129 | 208 ft | 15 kts | 167° |
| 2026-05-06 18:37 | 51.15277 | -0.18105 | 205 ft | 15 kts | 167° |
| 2026-05-06 18:37 | 51.15194 | -0.18215 | 206 ft | 14 kts | 258° |
| 2026-05-06 18:37 | 51.15178 | -0.18381 | 202 ft | 16 kts | 257° |
| 2026-05-06 18:38 | 51.15153 | -0.18562 | 205 ft | 17 kts | 258° |
| 2026-05-06 18:38 | 51.15125 | -0.18759 | 207 ft | 19 kts | 257° |
| 2026-05-06 18:38 | 51.15097 | -0.18971 | 209 ft | 20 kts | 258° |
| 2026-05-06 18:38 | 51.15069 | -0.19172 | 208 ft | 14 kts | 257° |
| 2026-05-06 18:39 | 51.15003 | -0.19263 | 213 ft | 14 kts | 184° |
| 2026-05-06 18:39 | 51.14951 | -0.19366 | 208 ft | 14 kts | 259° |
| 2026-05-06 18:39 | 51.14929 | -0.19526 | 204 ft | 16 kts | 257° |
| 2026-05-06 18:40 | 51.14877 | -0.19902 | 205 ft | 20 kts | 257° |
| 2026-05-06 18:40 | 51.14847 | -0.20126 | 203 ft | 22 kts | 258° |
| 2026-05-06 18:40 | 51.14812 | -0.20372 | 206 ft | 23 kts | 259° |
| 2026-05-06 18:40 | 51.14782 | -0.20581 | 205 ft | 19 kts | 258° |
| 2026-05-06 18:41 | 51.14753 | -0.20796 | 211 ft | 21 kts | 258° |
| 2026-05-06 18:41 | 51.14722 | -0.20975 | 210 ft | 12 kts | 224° |
| 2026-05-06 18:41 | 51.14639 | -0.20961 | 202 ft | 13 kts | 165° |
| 2026-05-06 18:41 | 51.14574 | -0.20865 | 203 ft | 13 kts | 113° |
| 2026-05-06 18:42 | 51.14580 | -0.20728 | 204 ft | 12 kts | 77° |
| 2026-05-06 18:42 | 51.14606 | -0.20550 | 206 ft | 38 kts | 78° |
| 2026-05-06 18:42 | 51.14719 | -0.19747 | 206 ft | 109 kts | 77° |
| 2026-05-06 18:42 | 51.14926 | -0.18255 | 332 ft | 158 kts | 77° |
| 2026-05-06 18:43 | 51.15176 | -0.16399 | 925 ft | 183 kts | 77° |
| 2026-05-06 18:43 | 51.15443 | -0.14361 | 1927 ft | 196 kts | 76° |
| 2026-05-06 18:43 | 51.15756 | -0.12102 | 2785 ft | 224 kts | 75° |
| 2026-05-06 18:43 | 51.16142 | -0.09427 | 3232 ft | 276 kts | 75° |
| 2026-05-06 18:44 | 51.16798 | -0.06319 | 3272 ft | 298 kts | 59° |
| 2026-05-06 18:44 | 51.18246 | -0.03913 | 3286 ft | 293 kts | 30° |
| 2026-05-06 18:44 | 51.20105 | -0.03083 | 3264 ft | 271 kts | 358° |
| 2026-05-06 18:44 | 51.21818 | -0.03970 | 3229 ft | 255 kts | 324° |
| 2026-05-06 18:45 | 51.22875 | -0.06269 | 3244 ft | 284 kts | 292° |
| 2026-05-06 18:45 | 51.23320 | -0.09496 | 3331 ft | 301 kts | 277° |
| 2026-05-06 18:45 | 51.23203 | -0.12673 | 3583 ft | 275 kts | 260° |
| 2026-05-06 18:45 | 51.22927 | -0.14611 | 4100 ft | 261 kts | 258° |
| 2026-05-06 18:46 | 51.22414 | -0.18375 | 5005 ft | 269 kts | 260° |
| 2026-05-06 18:46 | 51.22013 | -0.21283 | 5828 ft | 264 kts | 260° |
| 2026-05-06 18:46 | 51.21622 | -0.24130 | 6661 ft | 264 kts | 260° |
| 2026-05-06 18:46 | 51.21208 | -0.27007 | 7351 ft | 268 kts | 258° |
| 2026-05-06 18:47 | 51.20737 | -0.29923 | 8007 ft | 274 kts | 257° |
| 2026-05-06 18:47 | 51.20221 | -0.32876 | 8692 ft | 278 kts | 256° |
| 2026-05-06 18:47 | 51.19677 | -0.35871 | 9421 ft | 283 kts | 256° |
| 2026-05-06 18:47 | 51.19236 | -0.38945 | 10182 ft | 285 kts | 261° |
| 2026-05-06 18:48 | 51.18870 | -0.42046 | 10828 ft | 292 kts | 261° |
| 2026-05-06 18:48 | 51.18485 | -0.45224 | 11649 ft | 293 kts | 261° |
| 2026-05-06 18:48 | 51.18080 | -0.48418 | 12523 ft | 294 kts | 259° |
| 2026-05-06 18:48 | 51.17663 | -0.51615 | 13442 ft | 295 kts | 259° |
| 2026-05-06 18:49 | 51.17108 | -0.54812 | 14045 ft | 308 kts | 252° |
| 2026-05-06 18:49 | 51.16274 | -0.58066 | 14505 ft | 324 kts | 247° |
| 2026-05-06 18:49 | 51.15339 | -0.61370 | 15238 ft | 328 kts | 247° |
| 2026-05-06 18:49 | 51.14420 | -0.64708 | 16077 ft | 331 kts | 248° |
| 2026-05-06 18:50 | 51.13510 | -0.68094 | 16887 ft | 334 kts | 248° |
| 2026-05-06 18:50 | 51.12593 | -0.71526 | 17668 ft | 338 kts | 248° |
| 2026-05-06 18:50 | 51.11983 | -0.73816 | 18187 ft | 340 kts | 248° |
| 2026-05-06 18:50 | 51.11234 | -0.76620 | 18754 ft | 343 kts | 248° |
| 2026-05-06 18:51 | 51.09990 | -0.81279 | 19642 ft | 347 kts | 248° |
| 2026-05-06 18:51 | 51.09038 | -0.84830 | 20294 ft | 350 kts | 248° |
| 2026-05-06 18:51 | 51.08079 | -0.88404 | 20930 ft | 353 kts | 248° |
| 2026-05-06 18:51 | 51.07113 | -0.91992 | 21550 ft | 356 kts | 248° |
| 2026-05-06 18:52 | 51.06467 | -0.94390 | 21945 ft | 358 kts | 248° |
| 2026-05-06 18:52 | 51.05482 | -0.98047 | 22570 ft | 361 kts | 248° |
| 2026-05-06 18:52 | 51.04485 | -1.01736 | 23200 ft | 364 kts | 248° |
| 2026-05-06 18:52 | 51.03478 | -1.05457 | 23800 ft | 368 kts | 248° |
| 2026-05-06 18:53 | 51.02463 | -1.09200 | 24362 ft | 370 kts | 248° |
| 2026-05-06 18:53 | 51.01436 | -1.12979 | 24902 ft | 373 kts | 248° |
| 2026-05-06 18:53 | 51.00402 | -1.16777 | 25447 ft | 376 kts | 248° |
| 2026-05-06 18:53 | 50.99358 | -1.20606 | 25964 ft | 379 kts | 247° |
| 2026-05-06 18:54 | 50.98304 | -1.24462 | 26479 ft | 382 kts | 247° |
| 2026-05-06 18:54 | 50.97239 | -1.28351 | 26970 ft | 385 kts | 247° |
| 2026-05-06 18:54 | 50.96141 | -1.32246 | 27426 ft | 389 kts | 243° |
| 2026-05-06 18:54 | 50.94560 | -1.35746 | 27850 ft | 394 kts | 227° |
| 2026-05-06 18:55 | 50.92461 | -1.38480 | 28306 ft | 398 kts | 217° |
| 2026-05-06 18:55 | 50.90175 | -1.40988 | 28733 ft | 401 kts | 216° |
| 2026-05-06 18:55 | 50.87872 | -1.43493 | 29220 ft | 402 kts | 216° |
| 2026-05-06 18:55 | 50.85554 | -1.45993 | 29601 ft | 406 kts | 216° |
| 2026-05-06 18:56 | 50.83205 | -1.48506 | 30008 ft | 409 kts | 216° |
| 2026-05-06 18:56 | 50.80836 | -1.51020 | 30367 ft | 411 kts | 216° |
| 2026-05-06 18:56 | 50.78451 | -1.53533 | 30707 ft | 412 kts | 215° |
| 2026-05-06 18:56 | 50.76050 | -1.56042 | 31027 ft | 415 kts | 215° |
| 2026-05-06 18:57 | 50.73588 | -1.58450 | 31315 ft | 417 kts | 211° |
| 2026-05-06 18:57 | 50.70996 | -1.60561 | 31598 ft | 420 kts | 207° |
| 2026-05-06 18:57 | 50.68311 | -1.62433 | 31867 ft | 423 kts | 204° |
| 2026-05-06 18:57 | 50.65669 | -1.64434 | 32075 ft | 422 kts | 217° |
| 2026-05-06 18:58 | 50.63541 | -1.67512 | 32353 ft | 419 kts | 229° |
| 2026-05-06 18:58 | 50.61697 | -1.71054 | 32665 ft | 418 kts | 235° |
| 2026-05-06 18:58 | 50.59978 | -1.74755 | 32990 ft | 419 kts | 229° |
| 2026-05-06 18:58 | 50.57675 | -1.77550 | 33267 ft | 422 kts | 210° |
| 2026-05-06 18:59 | 50.55005 | -1.79470 | 33642 ft | 422 kts | 204° |
| 2026-05-06 18:59 | 50.52253 | -1.81095 | 33927 ft | 423 kts | 200° |
| 2026-05-06 18:59 | 50.49499 | -1.82681 | 34175 ft | 422 kts | 205° |
| 2026-05-06 18:59 | 50.46866 | -1.84698 | 34393 ft | 420 kts | 211° |
| 2026-05-06 19:00 | 50.44346 | -1.87029 | 34667 ft | 419 kts | 214° |
| 2026-05-06 19:00 | 50.41885 | -1.89476 | 34932 ft | 419 kts | 214° |
| 2026-05-06 19:00 | 50.39426 | -1.91972 | 35151 ft | 421 kts | 215° |
| 2026-05-06 19:00 | 50.36903 | -1.94319 | 35355 ft | 423 kts | 209° |
| 2026-05-06 19:01 | 50.34298 | -1.96345 | 35607 ft | 424 kts | 207° |
| 2026-05-06 19:01 | 50.31636 | -1.98336 | 35843 ft | 424 kts | 207° |
| 2026-05-06 19:01 | 50.28972 | -2.00326 | 36088 ft | 424 kts | 207° |
| 2026-05-06 19:01 | 50.26316 | -2.02317 | 36323 ft | 424 kts | 207° |
| 2026-05-06 19:02 | 50.23652 | -2.04316 | 36530 ft | 425 kts | 207° |
| 2026-05-06 19:02 | 50.20987 | -2.06317 | 36748 ft | 425 kts | 207° |
| 2026-05-06 19:02 | 50.18325 | -2.08316 | 36948 ft | 426 kts | 207° |
| 2026-05-06 19:03 | 50.12914 | -2.12369 | 36716 ft | 439 kts | 207° |
| 2026-05-06 19:03 | 50.10102 | -2.14464 | 36065 ft | 453 kts | 207° |
| 2026-05-06 19:03 | 50.07260 | -2.16575 | 35890 ft | 452 kts | 207° |
| 2026-05-06 19:03 | 50.04438 | -2.18673 | 35634 ft | 447 kts | 207° |
| 2026-05-06 19:04 | 50.01635 | -2.20754 | 35260 ft | 442 kts | 207° |
| 2026-05-06 19:04 | 49.98936 | -2.22753 | 35294 ft | 431 kts | 207° |
| 2026-05-06 19:04 | 49.96217 | -2.24775 | 35311 ft | 437 kts | 207° |
| 2026-05-06 19:05 | 49.90653 | -2.28901 | 35304 ft | 447 kts | 207° |
| 2026-05-06 19:05 | 49.85041 | -2.33046 | 35297 ft | 447 kts | 207° |
| 2026-05-06 19:06 | 49.79424 | -2.37185 | 35293 ft | 447 kts | 207° |
| 2026-05-06 19:06 | 49.73799 | -2.41319 | 35294 ft | 447 kts | 207° |
| 2026-05-06 19:07 | 49.68165 | -2.45449 | 35288 ft | 448 kts | 207° |
| 2026-05-06 19:07 | 49.62524 | -2.49575 | 35297 ft | 448 kts | 207° |
| 2026-05-06 19:08 | 49.56885 | -2.53687 | 35296 ft | 448 kts | 207° |
| 2026-05-06 19:08 | 49.51242 | -2.57792 | 35298 ft | 448 kts | 207° |
| 2026-05-06 19:09 | 49.45622 | -2.61870 | 35293 ft | 450 kts | 207° |
| 2026-05-06 19:09 | 49.39958 | -2.65970 | 35297 ft | 449 kts | 207° |
| 2026-05-06 19:10 | 49.34318 | -2.70040 | 35281 ft | 441 kts | 207° |
| 2026-05-06 19:10 | 49.31580 | -2.72009 | 35139 ft | 427 kts | 207° |
| 2026-05-06 19:10 | 49.28924 | -2.73916 | 34938 ft | 416 kts | 207° |
| 2026-05-06 19:11 | 49.23658 | -2.77705 | 35015 ft | 427 kts | 207° |
| 2026-05-06 19:11 | 49.18189 | -2.81627 | 35024 ft | 441 kts | 207° |
| 2026-05-06 19:12 | 49.12554 | -2.85654 | 34989 ft | 449 kts | 207° |
| 2026-05-06 19:12 | 49.06889 | -2.89692 | 34998 ft | 449 kts | 207° |
| 2026-05-06 19:13 | 49.01224 | -2.93721 | 34985 ft | 450 kts | 206° |
| 2026-05-06 19:13 | 48.95546 | -2.97750 | 34988 ft | 450 kts | 206° |
| 2026-05-06 19:14 | 48.89906 | -3.01742 | 34990 ft | 450 kts | 206° |
| 2026-05-06 19:14 | 48.84225 | -3.05751 | 34998 ft | 450 kts | 206° |
| 2026-05-06 19:15 | 48.78539 | -3.09755 | 34997 ft | 449 kts | 206° |
| 2026-05-06 19:15 | 48.72868 | -3.13738 | 35000 ft | 449 kts | 206° |
| 2026-05-06 19:16 | 48.67196 | -3.17712 | 34996 ft | 449 kts | 206° |
| 2026-05-06 19:16 | 48.61519 | -3.21680 | 34996 ft | 449 kts | 206° |
| 2026-05-06 19:17 | 48.55834 | -3.25642 | 34996 ft | 450 kts | 206° |
| 2026-05-06 19:17 | 48.50183 | -3.29572 | 34989 ft | 450 kts | 206° |
| 2026-05-06 19:18 | 48.44494 | -3.33517 | 35000 ft | 450 kts | 206° |
| 2026-05-06 19:18 | 48.38805 | -3.37454 | 34994 ft | 450 kts | 206° |
| 2026-05-06 19:19 | 48.33105 | -3.41389 | 34989 ft | 450 kts | 206° |
| 2026-05-06 19:19 | 48.27418 | -3.45303 | 34996 ft | 449 kts | 206° |
| 2026-05-06 19:20 | 48.21765 | -3.49188 | 34988 ft | 450 kts | 206° |
| 2026-05-06 19:20 | 48.16064 | -3.53094 | 34988 ft | 449 kts | 206° |
| 2026-05-06 19:21 | 48.10374 | -3.56982 | 34991 ft | 450 kts | 206° |
| 2026-05-06 19:21 | 48.04680 | -3.60868 | 34993 ft | 450 kts | 206° |
| 2026-05-06 19:22 | 47.98980 | -3.64743 | 34994 ft | 450 kts | 206° |
| 2026-05-06 19:22 | 47.93284 | -3.68608 | 35002 ft | 450 kts | 206° |
| 2026-05-06 19:23 | 47.87615 | -3.72446 | 34989 ft | 450 kts | 206° |
| 2026-05-06 19:23 | 47.81921 | -3.76294 | 34990 ft | 450 kts | 206° |
| 2026-05-06 19:24 | 47.76215 | -3.80136 | 34991 ft | 449 kts | 206° |
| 2026-05-06 19:24 | 47.70525 | -3.83960 | 34989 ft | 449 kts | 206° |
| 2026-05-06 19:25 | 47.64825 | -3.87783 | 34995 ft | 449 kts | 206° |
| 2026-05-06 19:25 | 47.59120 | -3.91597 | 34996 ft | 449 kts | 206° |
| 2026-05-06 19:26 | 47.53453 | -3.95379 | 34993 ft | 449 kts | 206° |
| 2026-05-06 19:26 | 47.47761 | -3.99169 | 34992 ft | 449 kts | 206° |
| 2026-05-06 19:27 | 47.42066 | -4.02945 | 34998 ft | 449 kts | 206° |
| 2026-05-06 19:27 | 47.36366 | -4.06724 | 35000 ft | 449 kts | 206° |
| 2026-05-06 19:28 | 47.30658 | -4.10500 | 34996 ft | 448 kts | 206° |
| 2026-05-06 19:28 | 47.25000 | -4.14237 | 35007 ft | 448 kts | 206° |
| 2026-05-06 19:29 | 47.19308 | -4.17975 | 35000 ft | 447 kts | 205° |
| 2026-05-06 19:29 | 47.13629 | -4.21701 | 35004 ft | 448 kts | 206° |
| 2026-05-06 19:30 | 47.07937 | -4.25432 | 35005 ft | 447 kts | 205° |
| 2026-05-06 19:30 | 47.02271 | -4.29187 | 35009 ft | 447 kts | 207° |
| 2026-05-06 19:31 | 46.96646 | -4.33049 | 35001 ft | 447 kts | 206° |
| 2026-05-06 19:31 | 46.88188 | -4.38801 | 35003 ft | 447 kts | 206° |
| 2026-05-06 19:32 | 46.82545 | -4.42623 | 35009 ft | 447 kts | 206° |
| 2026-05-06 19:32 | 46.76905 | -4.46432 | 35009 ft | 446 kts | 206° |
| 2026-05-06 19:33 | 46.71294 | -4.50213 | 35013 ft | 447 kts | 206° |
| 2026-05-06 19:33 | 46.65649 | -4.54012 | 35016 ft | 447 kts | 206° |
| 2026-05-06 19:34 | 46.59995 | -4.57804 | 35017 ft | 446 kts | 206° |
| 2026-05-06 19:34 | 46.54356 | -4.61577 | 35016 ft | 447 kts | 206° |
| 2026-05-06 19:35 | 46.48704 | -4.65352 | 35016 ft | 447 kts | 206° |
| 2026-05-06 19:35 | 46.43055 | -4.69116 | 35023 ft | 447 kts | 206° |
| 2026-05-06 19:36 | 46.37439 | -4.72850 | 35022 ft | 446 kts | 206° |
| 2026-05-06 19:36 | 46.31778 | -4.76604 | 35023 ft | 447 kts | 206° |
| 2026-05-06 19:37 | 46.26124 | -4.80346 | 35021 ft | 446 kts | 206° |
| 2026-05-06 19:37 | 46.21436 | -4.83444 | 35025 ft | 446 kts | 206° |
| 2026-05-06 19:38 | 46.14834 | -4.87793 | 35024 ft | 446 kts | 206° |
| 2026-05-06 19:38 | 46.09225 | -4.91479 | 35026 ft | 446 kts | 206° |
| 2026-05-06 19:39 | 46.03573 | -4.95186 | 35030 ft | 446 kts | 206° |
| 2026-05-06 19:39 | 45.97928 | -4.98879 | 35028 ft | 446 kts | 206° |
| 2026-05-06 19:40 | 45.93225 | -5.01950 | 35025 ft | 446 kts | 206° |
| 2026-05-06 19:40 | 45.87562 | -5.05641 | 35019 ft | 446 kts | 206° |
| 2026-05-06 19:41 | 45.81909 | -5.09315 | 35024 ft | 446 kts | 206° |
| 2026-05-06 19:41 | 45.76252 | -5.12985 | 35025 ft | 444 kts | 205° |
| 2026-05-06 19:42 | 45.70619 | -5.16631 | 35025 ft | 444 kts | 205° |
| 2026-05-06 19:42 | 45.65009 | -5.20254 | 35028 ft | 444 kts | 205° |
| 2026-05-06 19:43 | 45.59354 | -5.23897 | 35024 ft | 444 kts | 205° |
| 2026-05-06 19:43 | 45.53748 | -5.27502 | 35025 ft | 444 kts | 205° |
| 2026-05-06 19:44 | 45.48107 | -5.31121 | 35026 ft | 444 kts | 205° |
| 2026-05-06 19:44 | 45.42470 | -5.34730 | 35030 ft | 444 kts | 205° |
| 2026-05-06 19:45 | 45.36830 | -5.38332 | 35027 ft | 444 kts | 205° |
| 2026-05-06 19:45 | 45.31221 | -5.41907 | 35027 ft | 444 kts | 205° |
| 2026-05-06 19:46 | 45.25579 | -5.45495 | 35031 ft | 444 kts | 205° |
| 2026-05-06 19:46 | 45.19945 | -5.49069 | 35028 ft | 444 kts | 205° |
| 2026-05-06 19:47 | 45.14304 | -5.52642 | 35027 ft | 444 kts | 205° |
| 2026-05-06 19:47 | 45.08662 | -5.56207 | 35028 ft | 444 kts | 205° |
| 2026-05-06 19:48 | 45.03057 | -5.59739 | 35031 ft | 443 kts | 205° |
| 2026-05-06 19:48 | 44.97419 | -5.63286 | 35028 ft | 443 kts | 205° |
| 2026-05-06 19:49 | 44.91769 | -5.66833 | 35025 ft | 443 kts | 205° |
| 2026-05-06 19:49 | 44.86130 | -5.70366 | 35025 ft | 443 kts | 205° |
| 2026-05-06 19:50 | 44.80493 | -5.73889 | 35023 ft | 442 kts | 205° |
| 2026-05-06 19:50 | 44.74858 | -5.77402 | 35026 ft | 442 kts | 205° |
| 2026-05-06 19:51 | 44.69228 | -5.80907 | 35022 ft | 443 kts | 205° |
| 2026-05-06 19:51 | 44.63831 | -5.84907 | 35037 ft | 441 kts | 216° |
| 2026-05-06 19:52 | 44.58815 | -5.89878 | 35016 ft | 440 kts | 216° |
| 2026-05-06 19:52 | 44.53812 | -5.94856 | 35016 ft | 441 kts | 216° |
| 2026-05-06 19:53 | 44.48809 | -5.99811 | 35018 ft | 441 kts | 216° |
| 2026-05-06 19:53 | 44.43819 | -6.04738 | 35019 ft | 440 kts | 216° |
| 2026-05-06 19:54 | 44.38808 | -6.09676 | 35021 ft | 440 kts | 216° |
| 2026-05-06 19:54 | 44.33801 | -6.14599 | 35019 ft | 440 kts | 216° |
| 2026-05-06 19:55 | 44.28792 | -6.19512 | 35019 ft | 440 kts | 216° |
| 2026-05-06 19:55 | 44.23784 | -6.24416 | 35021 ft | 439 kts | 216° |
| 2026-05-06 19:56 | 44.18776 | -6.29308 | 35020 ft | 439 kts | 216° |
| 2026-05-06 19:56 | 44.13763 | -6.34195 | 35019 ft | 439 kts | 216° |
| 2026-05-06 19:57 | 44.08744 | -6.39078 | 35017 ft | 439 kts | 216° |
| 2026-05-06 19:57 | 44.03763 | -6.43914 | 35013 ft | 439 kts | 216° |
| 2026-05-06 19:58 | 43.98758 | -6.48763 | 35016 ft | 438 kts | 215° |
| 2026-05-06 19:58 | 43.93754 | -6.53600 | 35017 ft | 438 kts | 215° |
| 2026-05-06 19:59 | 43.88745 | -6.58432 | 35017 ft | 438 kts | 215° |
| 2026-05-06 19:59 | 43.83736 | -6.63253 | 35017 ft | 438 kts | 215° |
| 2026-05-06 20:00 | 43.78732 | -6.68061 | 35019 ft | 438 kts | 215° |
| 2026-05-06 20:00 | 43.73723 | -6.72863 | 35019 ft | 438 kts | 215° |
| 2026-05-06 20:01 | 43.68753 | -6.77617 | 35018 ft | 438 kts | 215° |
| 2026-05-06 20:01 | 43.63739 | -6.82405 | 35017 ft | 438 kts | 215° |
| 2026-05-06 20:02 | 43.58725 | -6.87181 | 35016 ft | 437 kts | 215° |
| 2026-05-06 20:02 | 43.53715 | -6.91944 | 35020 ft | 437 kts | 215° |
| 2026-05-06 20:03 | 43.48702 | -6.96702 | 35019 ft | 437 kts | 215° |
| 2026-05-06 20:03 | 43.43725 | -7.01414 | 35019 ft | 437 kts | 215° |
| 2026-05-06 20:04 | 43.38721 | -7.06143 | 35022 ft | 434 kts | 215° |
| 2026-05-06 20:04 | 43.33732 | -7.10848 | 35015 ft | 435 kts | 215° |
| 2026-05-06 20:05 | 43.28738 | -7.15547 | 35020 ft | 434 kts | 215° |
| 2026-05-06 20:05 | 43.23755 | -7.20228 | 35018 ft | 435 kts | 215° |
| 2026-05-06 20:06 | 43.18754 | -7.24917 | 35015 ft | 434 kts | 215° |
| 2026-05-06 20:06 | 43.13766 | -7.29583 | 35011 ft | 434 kts | 215° |
| 2026-05-06 20:07 | 43.08775 | -7.34241 | 35007 ft | 434 kts | 215° |
| 2026-05-06 20:07 | 43.03785 | -7.38895 | 35007 ft | 434 kts | 215° |
| 2026-05-06 20:08 | 42.98789 | -7.43543 | 35002 ft | 434 kts | 215° |
| 2026-05-06 20:08 | 42.93831 | -7.48144 | 34999 ft | 433 kts | 214° |
| 2026-05-06 20:09 | 42.88848 | -7.52760 | 35000 ft | 433 kts | 214° |
| 2026-05-06 20:09 | 42.83849 | -7.57380 | 34994 ft | 433 kts | 214° |
| 2026-05-06 20:10 | 42.78858 | -7.61984 | 34990 ft | 434 kts | 214° |
| 2026-05-06 20:10 | 42.73888 | -7.66564 | 34995 ft | 434 kts | 214° |
| 2026-05-06 20:11 | 42.68882 | -7.71164 | 34991 ft | 434 kts | 214° |
| 2026-05-06 20:11 | 42.63868 | -7.75758 | 34985 ft | 434 kts | 214° |
| 2026-05-06 20:12 | 42.61246 | -7.77779 | 34997 ft | 435 kts | 203° |
| 2026-05-06 20:12 | 42.58367 | -7.79063 | 35005 ft | 436 kts | 198° |
| 2026-05-06 20:12 | 42.52531 | -7.81335 | 34984 ft | 436 kts | 197° |
| 2026-05-06 20:13 | 42.46694 | -7.83571 | 34981 ft | 436 kts | 197° |
| 2026-05-06 20:13 | 42.43817 | -7.84672 | 34741 ft | 431 kts | 197° |
| 2026-05-06 20:13 | 42.40972 | -7.85764 | 34466 ft | 417 kts | 197° |
| 2026-05-06 20:14 | 42.38216 | -7.86823 | 33925 ft | 410 kts | 197° |
| 2026-05-06 20:14 | 42.35489 | -7.87877 | 33386 ft | 402 kts | 197° |
| 2026-05-06 20:14 | 42.32824 | -7.88899 | 32798 ft | 395 kts | 197° |
| 2026-05-06 20:14 | 42.30215 | -7.89888 | 32326 ft | 387 kts | 196° |
| 2026-05-06 20:15 | 42.27637 | -7.90861 | 31802 ft | 380 kts | 196° |
| 2026-05-06 20:15 | 42.25108 | -7.91820 | 31285 ft | 376 kts | 196° |
| 2026-05-06 20:15 | 42.22582 | -7.92772 | 30816 ft | 378 kts | 196° |
| 2026-05-06 20:15 | 42.20019 | -7.93740 | 30280 ft | 386 kts | 196° |
| 2026-05-06 20:16 | 42.17414 | -7.94727 | 29741 ft | 389 kts | 195° |
| 2026-05-06 20:16 | 42.14802 | -7.95711 | 29256 ft | 391 kts | 195° |
| 2026-05-06 20:16 | 42.12177 | -7.96703 | 28713 ft | 393 kts | 195° |
| 2026-05-06 20:16 | 42.09535 | -7.97701 | 28188 ft | 395 kts | 195° |
| 2026-05-06 20:17 | 42.06910 | -7.98693 | 27686 ft | 396 kts | 195° |
| 2026-05-06 20:17 | 42.04252 | -7.99702 | 27126 ft | 395 kts | 195° |
| 2026-05-06 20:17 | 42.01612 | -8.00698 | 26610 ft | 392 kts | 195° |
| 2026-05-06 20:17 | 41.98996 | -8.01682 | 26082 ft | 389 kts | 195° |
| 2026-05-06 20:18 | 41.96401 | -8.02659 | 25573 ft | 386 kts | 195° |
| 2026-05-06 20:18 | 41.93822 | -8.03631 | 25060 ft | 384 kts | 196° |
| 2026-05-06 20:18 | 41.91269 | -8.04593 | 24558 ft | 381 kts | 196° |
| 2026-05-06 20:18 | 41.88715 | -8.05555 | 24037 ft | 378 kts | 196° |
| 2026-05-06 20:19 | 41.86192 | -8.06505 | 23534 ft | 375 kts | 196° |
| 2026-05-06 20:19 | 41.83694 | -8.07444 | 23043 ft | 371 kts | 196° |
| 2026-05-06 20:19 | 41.81250 | -8.08523 | 22539 ft | 369 kts | 205° |
| 2026-05-06 20:19 | 41.78974 | -8.10106 | 22059 ft | 368 kts | 208° |
| 2026-05-06 20:20 | 41.76736 | -8.11765 | 21568 ft | 366 kts | 209° |
| 2026-05-06 20:20 | 41.74519 | -8.13408 | 21072 ft | 364 kts | 209° |
| 2026-05-06 20:20 | 41.72305 | -8.15040 | 20594 ft | 361 kts | 208° |
| 2026-05-06 20:20 | 41.70067 | -8.16523 | 20120 ft | 358 kts | 201° |
| 2026-05-06 20:21 | 41.67746 | -8.17635 | 19644 ft | 357 kts | 199° |
| 2026-05-06 20:21 | 41.65406 | -8.18715 | 19170 ft | 355 kts | 199° |
| 2026-05-06 20:21 | 41.63082 | -8.19780 | 18697 ft | 352 kts | 199° |
| 2026-05-06 20:21 | 41.60771 | -8.20836 | 18226 ft | 351 kts | 199° |
| 2026-05-06 20:22 | 41.58469 | -8.21888 | 17758 ft | 347 kts | 199° |
| 2026-05-06 20:22 | 41.56189 | -8.22932 | 17301 ft | 346 kts | 199° |
| 2026-05-06 20:22 | 41.53919 | -8.23971 | 16846 ft | 344 kts | 199° |
| 2026-05-06 20:22 | 41.51664 | -8.24999 | 16383 ft | 342 kts | 199° |
| 2026-05-06 20:23 | 41.49412 | -8.26031 | 15936 ft | 341 kts | 199° |
| 2026-05-06 20:23 | 41.47178 | -8.27050 | 15490 ft | 338 kts | 199° |
| 2026-05-06 20:23 | 41.44957 | -8.28063 | 15030 ft | 335 kts | 199° |
| 2026-05-06 20:23 | 41.42789 | -8.29053 | 14593 ft | 331 kts | 199° |
| 2026-05-06 20:24 | 41.40633 | -8.30036 | 14189 ft | 324 kts | 199° |
| 2026-05-06 20:24 | 41.38512 | -8.30999 | 13749 ft | 319 kts | 199° |
| 2026-05-06 20:24 | 41.36431 | -8.31942 | 13324 ft | 312 kts | 199° |
| 2026-05-06 20:24 | 41.34426 | -8.32848 | 12882 ft | 295 kts | 199° |
| 2026-05-06 20:25 | 41.32495 | -8.33724 | 12558 ft | 292 kts | 199° |
| 2026-05-06 20:25 | 41.30566 | -8.34601 | 12145 ft | 293 kts | 199° |
| 2026-05-06 20:25 | 41.28667 | -8.35461 | 11769 ft | 289 kts | 198° |
| 2026-05-06 20:25 | 41.26768 | -8.36319 | 11387 ft | 286 kts | 198° |
| 2026-05-06 20:26 | 41.24893 | -8.37167 | 11005 ft | 284 kts | 198° |
| 2026-05-06 20:26 | 41.23028 | -8.38008 | 10631 ft | 282 kts | 198° |
| 2026-05-06 20:26 | 41.21173 | -8.38846 | 10260 ft | 281 kts | 198° |
| 2026-05-06 20:26 | 41.19322 | -8.39680 | 9888 ft | 279 kts | 198° |
| 2026-05-06 20:27 | 41.18107 | -8.40229 | 9622 ft | 278 kts | 198° |
| 2026-05-06 20:27 | 41.16279 | -8.41053 | 9271 ft | 275 kts | 198° |
| 2026-05-06 20:27 | 41.14465 | -8.41868 | 8900 ft | 275 kts | 198° |
| 2026-05-06 20:27 | 41.12653 | -8.42683 | 8538 ft | 275 kts | 198° |
| 2026-05-06 20:28 | 41.10839 | -8.43501 | 8178 ft | 275 kts | 198° |
| 2026-05-06 20:28 | 41.09028 | -8.44316 | 7804 ft | 274 kts | 198° |
| 2026-05-06 20:28 | 41.07223 | -8.45128 | 7440 ft | 273 kts | 198° |
| 2026-05-06 20:28 | 41.05421 | -8.45937 | 7044 ft | 273 kts | 198° |
| 2026-05-06 20:29 | 41.03625 | -8.46743 | 6687 ft | 272 kts | 198° |
| 2026-05-06 20:29 | 41.01861 | -8.47617 | 6345 ft | 270 kts | 207° |
| 2026-05-06 20:29 | 41.00460 | -8.49204 | 5962 ft | 272 kts | 236° |
| 2026-05-06 20:29 | 40.99822 | -8.51532 | 5739 ft | 270 kts | 258° |
| 2026-05-06 20:30 | 40.99606 | -8.54009 | 5346 ft | 274 kts | 272° |
| 2026-05-06 20:30 | 40.99440 | -8.59031 | 4551 ft | 272 kts | 265° |
| 2026-05-06 20:30 | 40.99259 | -8.61524 | 4174 ft | 269 kts | 265° |
| 2026-05-06 20:31 | 40.99064 | -8.63949 | 3986 ft | 262 kts | 266° |
| 2026-05-06 20:31 | 40.98874 | -8.66322 | 3974 ft | 260 kts | 266° |
| 2026-05-06 20:31 | 40.98687 | -8.68724 | 4010 ft | 264 kts | 267° |
| 2026-05-06 20:31 | 40.98480 | -8.71156 | 4019 ft | 266 kts | 265° |
| 2026-05-06 20:32 | 40.98279 | -8.73586 | 4003 ft | 266 kts | 267° |
| 2026-05-06 20:32 | 40.97992 | -8.75972 | 4009 ft | 268 kts | 255° |
| 2026-05-06 20:32 | 40.97036 | -8.78096 | 4011 ft | 271 kts | 226° |
| 2026-05-06 20:32 | 40.95407 | -8.79356 | 4006 ft | 275 kts | 196° |
| 2026-05-06 20:33 | 40.93522 | -8.79774 | 4013 ft | 276 kts | 188° |
| 2026-05-06 20:33 | 40.91618 | -8.80142 | 4006 ft | 279 kts | 189° |
| 2026-05-06 20:33 | 40.89709 | -8.80524 | 3991 ft | 277 kts | 189° |
| 2026-05-06 20:33 | 40.87798 | -8.80901 | 3982 ft | 279 kts | 189° |
| 2026-05-06 20:34 | 40.85875 | -8.81280 | 4002 ft | 276 kts | 188° |
| 2026-05-06 20:34 | 40.83977 | -8.81666 | 4004 ft | 276 kts | 188° |
| 2026-05-06 20:34 | 40.82088 | -8.81557 | 3995 ft | 271 kts | 162° |
| 2026-05-06 20:34 | 40.80487 | -8.80299 | 4002 ft | 270 kts | 132° |
| 2026-05-06 20:35 | 40.79587 | -8.78174 | 3998 ft | 268 kts | 101° |
| 2026-05-06 20:35 | 40.79515 | -8.75772 | 4051 ft | 265 kts | 82° |
| 2026-05-06 20:35 | 40.79631 | -8.73340 | 4028 ft | 267 kts | 85° |
| 2026-05-06 20:35 | 40.79901 | -8.70938 | 4003 ft | 261 kts | 66° |
| 2026-05-06 20:36 | 40.80970 | -8.69076 | 4006 ft | 255 kts | 34° |
| 2026-05-06 20:36 | 40.82538 | -8.68000 | 4005 ft | 253 kts | 21° |
| 2026-05-06 20:36 | 40.84184 | -8.67129 | 3997 ft | 256 kts | 22° |
| 2026-05-06 20:36 | 40.85800 | -8.66156 | 3987 ft | 256 kts | 25° |
| 2026-05-06 20:37 | 40.87385 | -8.65084 | 4001 ft | 254 kts | 26° |
| 2026-05-06 20:37 | 40.88959 | -8.63977 | 3990 ft | 258 kts | 27° |
| 2026-05-06 20:37 | 40.90539 | -8.62856 | 3995 ft | 256 kts | 27° |
| 2026-05-06 20:37 | 40.92104 | -8.61747 | 3994 ft | 255 kts | 27° |
| 2026-05-06 20:38 | 40.93654 | -8.60652 | 3997 ft | 256 kts | 27° |
| 2026-05-06 20:38 | 40.95224 | -8.59538 | 3990 ft | 255 kts | 27° |
| 2026-05-06 20:38 | 40.96781 | -8.58434 | 3979 ft | 256 kts | 27° |
| 2026-05-06 20:38 | 40.98363 | -8.57316 | 3976 ft | 258 kts | 27° |
| 2026-05-06 20:39 | 40.99949 | -8.56247 | 3985 ft | 255 kts | 20° |
| 2026-05-06 20:39 | 41.01687 | -8.55950 | 3997 ft | 256 kts | 352° |
| 2026-05-06 20:39 | 41.03316 | -8.56895 | 4015 ft | 258 kts | 321° |
| 2026-05-06 20:39 | 41.04367 | -8.58731 | 4024 ft | 245 kts | 298° |
| 2026-05-06 20:40 | 41.05131 | -8.60726 | 4033 ft | 239 kts | 297° |
| 2026-05-06 20:40 | 41.05999 | -8.62587 | 3670 ft | 234 kts | 315° |
| 2026-05-06 20:40 | 41.07323 | -8.63601 | 3368 ft | 216 kts | 346° |
| 2026-05-06 20:40 | 41.08755 | -8.63978 | 3150 ft | 206 kts | 351° |
| 2026-05-06 20:41 | 41.10141 | -8.64304 | 2963 ft | 195 kts | 350° |
| 2026-05-06 20:41 | 41.11423 | -8.64630 | 2886 ft | 181 kts | 350° |
| 2026-05-06 20:41 | 41.12701 | -8.64964 | 2331 ft | 190 kts | 349° |
| 2026-05-06 20:41 | 41.13964 | -8.65294 | 2047 ft | 175 kts | 349° |
| 2026-05-06 20:42 | 41.15095 | -8.65594 | 1799 ft | 157 kts | 349° |
| 2026-05-06 20:42 | 41.16116 | -8.65861 | 1608 ft | 139 kts | 349° |
| 2026-05-06 20:42 | 41.17018 | -8.66094 | 1457 ft | 129 kts | 350° |
| 2026-05-06 20:42 | 41.17883 | -8.66322 | 1286 ft | 125 kts | 349° |
| 2026-05-06 20:43 | 41.18720 | -8.66540 | 1103 ft | 124 kts | 348° |
| 2026-05-06 20:43 | 41.19560 | -8.66758 | 956 ft | 123 kts | 348° |
| 2026-05-06 20:43 | 41.20416 | -8.66983 | 807 ft | 127 kts | 348° |
| 2026-05-06 20:43 | 41.21285 | -8.67213 | 609 ft | 127 kts | 347° |
| 2026-05-06 20:44 | 41.22139 | -8.67444 | 458 ft | 123 kts | 347° |
| 2026-05-06 20:44 | 41.22992 | -8.67654 | 332 ft | 125 kts | 348° |
| 2026-05-06 20:44 | 41.23833 | -8.67879 | 221 ft | 114 kts | 348° |
| 2026-05-06 20:44 | 41.24486 | -8.68042 | 211 ft | 74 kts | 350° |
| 2026-05-06 20:45 | 41.24895 | -8.68150 | 200 ft | 46 kts | 349° |
| 2026-05-06 20:45 | 41.25159 | -8.68150 | 184 ft | 33 kts | 15° |
| 2026-05-06 20:45 | 41.25294 | -8.68064 | 180 ft | 13 kts | 58° |
| 2026-05-06 20:45 | 41.25255 | -8.68014 | 182 ft | 8 kts | 162° |
| 2026-05-06 20:46 | 41.25195 | -8.67996 | 191 ft | 9 kts | 167° |
| 2026-05-06 20:46 | 41.25131 | -8.67980 | 187 ft | 10 kts | 171° |
| 2026-05-06 20:46 | 41.25059 | -8.67962 | 190 ft | 11 kts | 169° |
| 2026-05-06 20:46 | 41.24988 | -8.67944 | 198 ft | 10 kts | 169° |
| 2026-05-06 20:47 | 41.24914 | -8.67924 | 196 ft | 11 kts | 168° |
| 2026-05-06 20:47 | 41.24843 | -8.67888 | 210 ft | 10 kts | 153° |
| 2026-05-06 20:47 | 41.24782 | -8.67848 | 203 ft | 9 kts | 153° |
| 2026-05-06 20:47 | 41.24724 | -8.67824 | 207 ft | 9 kts | 165° |
| 2026-05-06 20:48 | 41.24666 | -8.67806 | 215 ft | 10 kts | 167° |
| 2026-05-06 20:48 | 41.24585 | -8.67782 | 214 ft | 13 kts | 167° |
| 2026-05-06 20:48 | 41.24498 | -8.67759 | 218 ft | 13 kts | 169° |
| 2026-05-06 20:48 | 41.24405 | -8.67732 | 223 ft | 14 kts | 166° |
| 2026-05-06 20:49 | 41.24313 | -8.67699 | 229 ft | 14 kts | 156° |
| 2026-05-06 20:49 | 41.24251 | -8.67618 | 233 ft | 12 kts | 130° |
| 2026-05-06 20:49 | 41.24182 | -8.67570 | 237 ft | 12 kts | 164° |
| 2026-05-06 20:49 | 41.24085 | -8.67545 | 235 ft | 16 kts | 168° |
| 2026-05-06 20:50 | 41.23966 | -8.67513 | 236 ft | 19 kts | 168° |
| 2026-05-06 20:50 | 41.23837 | -8.67477 | 236 ft | 17 kts | 168° |
| 2026-05-06 20:50 | 41.23718 | -8.67448 | 236 ft | 18 kts | 168° |
| 2026-05-06 20:50 | 41.23634 | -8.67425 | 237 ft | 9 kts | 168° |
| 2026-05-06 20:51 | 41.23560 | -8.67404 | 236 ft | 13 kts | 166° |
| 2026-05-06 20:51 | 41.23467 | -8.67382 | 238 ft | 10 kts | 168° |
| 2026-05-06 20:51 | 41.23408 | -8.67364 | 236 ft | 6 kts | 159° |
| 2026-05-06 20:51 | 41.23379 | -8.67325 | 238 ft | 6 kts | 117° |
| 2026-05-06 20:52 | 41.23370 | -8.67291 | 240 ft | 2 kts | 110° |
| 2026-05-06 20:52 | 41.23369 | -8.67285 | 240 ft | 0 kts | 102° |
| 2026-05-06 20:52 | 41.23368 | -8.67278 | 241 ft | 5 kts | 97° |
| 2026-05-06 20:53 | 41.23391 | -8.67230 | 241 ft | 7 kts | 48° |
| 2026-05-06 20:53 | 41.23404 | -8.67211 | 241 ft | 1 kts | 47° |
| 2026-05-06 20:53 | 41.23412 | -8.67199 | 241 ft | 1 kts | 48° |
| 2026-05-06 20:53 | 41.23414 | -8.67197 | 241 ft | 0 kts | 48° |